sensor_id;sensor_type;location;lat;lon;timestamp;pressure;altitude;pressure_sealevel;temperature;humidity
70589;BME280;58152;49.202;18.744;2023-04-23T05:41:40;97084.06;;;8.43;54.18
70589;BME280;58152;49.202;18.744;2023-04-23T05:44:17;97076.13;;;8.45;54.11
70589;BME280;58152;49.202;18.744;2023-04-23T05:47:05;97081.94;;;8.51;53.88
70589;BME280;58152;49.202;18.744;2023-04-23T05:50:17;97064.63;;;8.49;55.35
70589;BME280;58152;49.202;18.744;2023-04-23T05:53:02;97090.25;;;8.61;55.32
70589;BME280;58152;49.202;18.744;2023-04-23T05:56:01;97072.22;;;8.55;55.01
70589;BME280;58152;49.202;18.744;2023-04-23T06:05:13;97086.69;;;8.63;54.13
70589;BME280;58152;49.202;18.744;2023-04-23T06:14:04;97066.69;;;8.62;54.84
70589;BME280;58152;49.202;18.744;2023-04-23T06:16:38;97068.06;;;8.71;54.93
70589;BME280;58152;49.202;18.744;2023-04-23T06:22:13;97073.78;;;8.79;55.00
70589;BME280;58152;49.202;18.744;2023-04-23T06:28:31;97070.09;;;8.85;55.88
70589;BME280;58152;49.202;18.744;2023-04-23T06:38:02;97058.31;;;8.95;55.41
70589;BME280;58152;49.202;18.744;2023-04-23T06:43:53;97066.31;;;9.11;54.72
70589;BME280;58152;49.202;18.744;2023-04-23T06:46:33;97057.56;;;9.12;54.92
70589;BME280;58152;49.202;18.744;2023-04-23T06:49:01;97054.66;;;9.18;54.50
70589;BME280;58152;49.202;18.744;2023-04-23T06:51:29;97047.53;;;9.22;54.66
70589;BME280;58152;49.202;18.744;2023-04-23T06:53:58;97038.03;;;9.19;54.88
70589;BME280;58152;49.202;18.744;2023-04-23T06:56:56;97063.41;;;9.37;56.21
70589;BME280;58152;49.202;18.744;2023-04-23T07:03:14;97045.91;;;9.38;55.34
70589;BME280;58152;49.202;18.744;2023-04-23T07:05:46;97048.31;;;9.42;55.04
70589;BME280;58152;49.202;18.744;2023-04-23T07:08:37;97033.47;;;9.43;54.79
70589;BME280;58152;49.202;18.744;2023-04-23T07:18:04;97035.72;;;9.70;55.12
70589;BME280;58152;49.202;18.744;2023-04-23T07:20:38;97031.34;;;9.70;54.74
70589;BME280;58152;49.202;18.744;2023-04-23T07:26:29;97024.72;;;9.80;54.82
70589;BME280;58152;49.202;18.744;2023-04-23T07:29:01;97038.19;;;9.91;54.65
70589;BME280;58152;49.202;18.744;2023-04-23T07:31:28;97021.63;;;9.91;55.02
70589;BME280;58152;49.202;18.744;2023-04-23T07:33:54;97023.81;;;10.00;54.65
70589;BME280;58152;49.202;18.744;2023-04-23T07:36:38;97018.34;;;10.05;55.32
70589;BME280;58152;49.202;18.744;2023-04-23T07:39:04;97020.56;;;10.12;54.76
70589;BME280;58152;49.202;18.744;2023-04-23T07:41:31;97024.69;;;10.18;54.47
70589;BME280;58152;49.202;18.744;2023-04-23T07:43:56;97008.72;;;10.23;54.57
70589;BME280;58152;49.202;18.744;2023-04-23T07:46:24;97022.09;;;10.35;54.72
70589;BME280;58152;49.202;18.744;2023-04-23T07:48:50;97003.91;;;10.32;55.07
70589;BME280;58152;49.202;18.744;2023-04-23T07:51:17;97003.59;;;10.38;55.50
70589;BME280;58152;49.202;18.744;2023-04-23T07:53:43;97011.47;;;10.56;55.71
70589;BME280;58152;49.202;18.744;2023-04-23T07:56:39;97007.06;;;10.74;55.56
70589;BME280;58152;49.202;18.744;2023-04-23T07:59:07;96995.38;;;10.79;54.35
70589;BME280;58152;49.202;18.744;2023-04-23T08:01:33;96992.63;;;10.82;54.22
70589;BME280;58152;49.202;18.744;2023-04-23T08:04:01;96991.34;;;10.89;53.78
70589;BME280;58152;49.202;18.744;2023-04-23T08:06:27;96991.06;;;10.96;54.09
70589;BME280;58152;49.202;18.744;2023-04-23T08:09:16;96996.72;;;11.04;53.90
70589;BME280;58152;49.202;18.744;2023-04-23T08:11:58;96986.75;;;11.10;53.49
70589;BME280;58152;49.202;18.744;2023-04-23T08:14:30;96984.81;;;11.14;53.85
70589;BME280;58152;49.202;18.744;2023-04-23T08:16:59;96987.97;;;11.20;53.17
70589;BME280;58152;49.202;18.744;2023-04-23T08:19:34;96977.38;;;11.22;53.23
70589;BME280;58152;49.202;18.744;2023-04-23T08:22:02;96976.81;;;11.33;53.82
70589;BME280;58152;49.202;18.744;2023-04-23T08:24:50;96971.91;;;11.42;53.68
70589;BME280;58152;49.202;18.744;2023-04-23T08:27:31;96982.00;;;11.50;52.90
70589;BME280;58152;49.202;18.744;2023-04-23T08:30:19;96970.34;;;11.54;52.99
70589;BME280;58152;49.202;18.744;2023-04-23T08:32:59;96986.13;;;11.70;52.05
70589;BME280;58152;49.202;18.744;2023-04-23T08:39:30;96963.50;;;11.99;48.39
70589;BME280;58152;49.202;18.744;2023-04-23T08:43:05;96973.06;;;12.16;48.74
70589;BME280;58152;49.202;18.744;2023-04-23T08:46:10;96968.09;;;12.26;47.00
70589;BME280;58152;49.202;18.744;2023-04-23T08:51:56;96976.47;;;12.62;44.97
70589;BME280;58152;49.202;18.744;2023-04-23T08:55:19;96966.63;;;12.80;41.67
70589;BME280;58152;49.202;18.744;2023-04-23T08:58:15;96951.97;;;12.90;43.14
70589;BME280;58152;49.202;18.744;2023-04-23T09:00:51;96951.97;;;12.90;44.29
70589;BME280;58152;49.202;18.744;2023-04-23T09:03:25;96948.59;;;13.03;44.04
70589;BME280;58152;49.202;18.744;2023-04-23T09:06:26;96954.03;;;13.14;42.51
70589;BME280;58152;49.202;18.744;2023-04-23T09:09:15;96953.75;;;13.18;43.84
70589;BME280;58152;49.202;18.744;2023-04-23T09:11:42;96951.41;;;13.28;44.14
70589;BME280;58152;49.202;18.744;2023-04-23T09:14:08;96956.97;;;13.38;42.71
70589;BME280;58152;49.202;18.744;2023-04-23T09:16:35;96956.19;;;13.50;42.64
70589;BME280;58152;49.202;18.744;2023-04-23T09:19:01;96930.75;;;13.63;41.96
70589;BME280;58152;49.202;18.744;2023-04-23T09:21:27;96955.84;;;13.69;41.43
70589;BME280;58152;49.202;18.744;2023-04-23T09:23:52;96955.81;;;13.83;41.26
70589;BME280;58152;49.202;18.744;2023-04-23T09:40:21;96938.75;;;14.29;39.98
70589;BME280;58152;49.202;18.744;2023-04-23T09:46:38;96931.97;;;14.52;39.70
70589;BME280;58152;49.202;18.744;2023-04-23T09:52:05;96940.09;;;14.61;38.56
70589;BME280;58152;49.202;18.744;2023-04-23T09:54:33;96912.03;;;14.73;39.63
70589;BME280;58152;49.202;18.744;2023-04-23T09:56:58;96920.91;;;14.85;39.00
70589;BME280;58152;49.202;18.744;2023-04-23T09:59:32;96914.22;;;15.05;38.79
70589;BME280;58152;49.202;18.744;2023-04-23T10:02:09;96906.28;;;15.17;38.85
70589;BME280;58152;49.202;18.744;2023-04-23T10:04:38;96920.34;;;15.31;38.18
70589;BME280;58152;49.202;18.744;2023-04-23T10:07:38;96929.34;;;15.89;35.33
70589;BME280;58152;49.202;18.744;2023-04-23T10:13:54;96907.38;;;16.59;33.74
70589;BME280;58152;49.202;18.744;2023-04-23T10:16:45;96895.41;;;16.77;36.66
70589;BME280;58152;49.202;18.744;2023-04-23T10:19:25;96880.34;;;16.77;35.53
70589;BME280;58152;49.202;18.744;2023-04-23T10:22:27;96894.66;;;17.09;36.49
70589;BME280;58152;49.202;18.744;2023-04-23T10:25:31;96889.72;;;17.38;33.77
70589;BME280;58152;49.202;18.744;2023-04-23T10:41:37;96871.34;;;18.00;33.76
70589;BME280;58152;49.202;18.744;2023-04-23T10:44:04;96862.53;;;18.00;35.01
70589;BME280;58152;49.202;18.744;2023-04-23T10:46:37;96861.53;;;17.80;35.47
70589;BME280;58152;49.202;18.744;2023-04-23T10:49:16;96874.75;;;18.23;34.48
70589;BME280;58152;49.202;18.744;2023-04-23T10:52:32;96853.31;;;18.78;32.36
70589;BME280;58152;49.202;18.744;2023-04-23T10:54:59;96866.78;;;19.17;33.36
70589;BME280;58152;49.202;18.744;2023-04-23T10:58:05;96837.69;;;19.25;31.20
70589;BME280;58152;49.202;18.744;2023-04-23T11:00:42;96859.03;;;19.04;33.48
70589;BME280;58152;49.202;18.744;2023-04-23T11:07:11;96858.09;;;18.21;32.55
70589;BME280;58152;49.202;18.744;2023-04-23T11:09:50;96836.66;;;18.76;31.58
70589;BME280;58152;49.202;18.744;2023-04-23T11:12:55;96855.28;;;19.07;32.53
70589;BME280;58152;49.202;18.744;2023-04-23T11:15:35;96853.06;;;19.21;33.77
70589;BME280;58152;49.202;18.744;2023-04-23T11:24:48;96842.03;;;20.05;32.46
70589;BME280;58152;49.202;18.744;2023-04-23T11:27:17;96846.38;;;19.96;31.59
70589;BME280;58152;49.202;18.744;2023-04-23T11:33:30;96840.22;;;19.86;29.92
70589;BME280;58152;49.202;18.744;2023-04-23T11:42:55;96828.50;;;18.98;32.95
70589;BME280;58152;49.202;18.744;2023-04-23T11:45:54;96821.88;;;18.83;31.37
70589;BME280;58152;49.202;18.744;2023-04-23T11:48:30;96829.78;;;18.73;33.53
70589;BME280;58152;49.202;18.744;2023-04-23T11:51:00;96817.78;;;18.69;32.91
70589;BME280;58152;49.202;18.744;2023-04-23T11:53:45;96814.44;;;18.77;32.50
70589;BME280;58152;49.202;18.744;2023-04-23T11:56:20;96816.69;;;19.22;31.60
70589;BME280;58152;49.202;18.744;2023-04-23T11:59:30;96838.59;;;19.45;32.78
70589;BME280;58152;49.202;18.744;2023-04-23T12:01:58;96813.72;;;19.65;32.95
70589;BME280;58152;49.202;18.744;2023-04-23T12:04:27;96805.00;;;20.31;32.11
70589;BME280;58152;49.202;18.744;2023-04-23T12:06:58;96810.28;;;20.97;30.85
70589;BME280;58152;49.202;18.744;2023-04-23T12:10:00;96809.13;;;20.72;29.84
70589;BME280;58152;49.202;18.744;2023-04-23T12:12:38;96798.81;;;20.40;29.63
70589;BME280;58152;49.202;18.744;2023-04-23T12:15:24;96793.09;;;20.16;29.73
70589;BME280;58152;49.202;18.744;2023-04-23T12:25:45;96789.91;;;20.69;27.66
70589;BME280;58152;49.202;18.744;2023-04-23T12:28:24;96798.09;;;21.22;26.71
70589;BME280;58152;49.202;18.744;2023-04-23T12:30:50;96784.84;;;21.58;28.77
70589;BME280;58152;49.202;18.744;2023-04-23T12:33:21;96786.19;;;21.98;28.55
70589;BME280;58152;49.202;18.744;2023-04-23T12:36:19;96792.19;;;22.36;28.47
70589;BME280;58152;49.202;18.744;2023-04-23T12:42:18;96801.69;;;22.82;27.30
70589;BME280;58152;49.202;18.744;2023-04-23T12:44:47;96782.88;;;22.92;26.38
70589;BME280;58152;49.202;18.744;2023-04-23T12:47:13;96789.97;;;23.09;26.82
70589;BME280;58152;49.202;18.744;2023-04-23T12:49:47;96786.00;;;23.21;26.35
70589;BME280;58152;49.202;18.744;2023-04-23T12:52:13;96775.97;;;23.15;27.20
70589;BME280;58152;49.202;18.744;2023-04-23T12:54:39;96758.47;;;23.45;26.90
70589;BME280;58152;49.202;18.744;2023-04-23T12:57:10;96769.94;;;23.80;26.51
70589;BME280;58152;49.202;18.744;2023-04-23T12:59:37;96768.59;;;24.08;25.62
70589;BME280;58152;49.202;18.744;2023-04-23T13:02:03;96765.41;;;24.13;25.82
70589;BME280;58152;49.202;18.744;2023-04-23T13:04:32;96756.69;;;24.27;25.36
70589;BME280;58152;49.202;18.744;2023-04-23T13:06:58;96759.41;;;24.44;25.58
70589;BME280;58152;49.202;18.744;2023-04-23T13:09:31;96760.53;;;24.66;25.42
70589;BME280;58152;49.202;18.744;2023-04-23T13:12:16;96749.22;;;24.87;22.78
70589;BME280;58152;49.202;18.744;2023-04-23T13:14:55;96752.06;;;24.93;24.07
70589;BME280;58152;49.202;18.744;2023-04-23T13:17:21;96736.41;;;24.97;24.42
70589;BME280;58152;49.202;18.744;2023-04-23T13:19:57;96745.28;;;25.14;24.25
70589;BME280;58152;49.202;18.744;2023-04-23T13:22:23;96748.41;;;25.25;24.56
70589;BME280;58152;49.202;18.744;2023-04-23T13:24:53;96739.63;;;25.40;24.74
70589;BME280;58152;49.202;18.744;2023-04-23T13:27:19;96732.16;;;25.50;23.97
70589;BME280;58152;49.202;18.744;2023-04-23T13:40:37;96730.78;;;25.54;20.63
70589;BME280;58152;49.202;18.744;2023-04-23T13:43:07;96734.53;;;25.45;23.83
70589;BME280;58152;49.202;18.744;2023-04-23T13:45:32;96717.72;;;25.51;23.23
70589;BME280;58152;49.202;18.744;2023-04-23T13:48:08;96723.38;;;25.56;23.34
70589;BME280;58152;49.202;18.744;2023-04-23T13:50:34;96721.66;;;25.63;23.36
70589;BME280;58152;49.202;18.744;2023-04-23T13:53:02;96714.50;;;25.55;23.52
70589;BME280;58152;49.202;18.744;2023-04-23T13:55:39;96713.06;;;25.45;23.67
70589;BME280;58152;49.202;18.744;2023-04-23T13:58:33;96712.47;;;25.57;22.37
70589;BME280;58152;49.202;18.744;2023-04-23T14:01:05;96706.31;;;25.80;23.41
70589;BME280;58152;49.202;18.744;2023-04-23T14:04:03;96709.50;;;25.98;21.76
70589;BME280;58152;49.202;18.744;2023-04-23T14:07:16;96723.38;;;26.02;20.16
70589;BME280;58152;49.202;18.744;2023-04-23T14:10:08;96720.09;;;26.15;20.84
70589;BME280;58152;49.202;18.744;2023-04-23T14:13:12;96700.44;;;26.14;20.99
70589;BME280;58152;49.202;18.744;2023-04-23T14:15:52;96705.75;;;26.22;23.25
70589;BME280;58152;49.202;18.744;2023-04-23T14:18:33;96702.97;;;26.30;19.81
70589;BME280;58152;49.202;18.744;2023-04-23T14:24:08;96698.03;;;25.58;23.50
70589;BME280;58152;49.202;18.744;2023-04-23T14:26:52;96695.13;;;25.14;23.56
70589;BME280;58152;49.202;18.744;2023-04-23T14:29:40;96700.00;;;25.10;22.66
70589;BME280;58152;49.202;18.744;2023-04-23T14:32:09;96692.13;;;24.70;23.79
70589;BME280;58152;49.202;18.744;2023-04-23T14:34:38;96697.91;;;24.34;23.79
70589;BME280;58152;49.202;18.744;2023-04-23T14:37:03;96701.47;;;24.10;24.18
70589;BME280;58152;49.202;18.744;2023-04-23T14:39:29;96701.97;;;23.97;24.25
70589;BME280;58152;49.202;18.744;2023-04-23T14:41:55;96688.25;;;23.84;24.77
70589;BME280;58152;49.202;18.744;2023-04-23T14:44:23;96688.06;;;23.94;24.59
70589;BME280;58152;49.202;18.744;2023-04-23T14:46:57;96689.88;;;24.34;24.36
70589;BME280;58152;49.202;18.744;2023-04-23T14:49:34;96695.16;;;24.67;23.52
70589;BME280;58152;49.202;18.744;2023-04-23T14:52:10;96701.53;;;24.66;23.88
70589;BME280;58152;49.202;18.744;2023-04-23T14:54:37;96692.91;;;24.39;23.93
70589;BME280;58152;49.202;18.744;2023-04-23T14:57:03;96699.38;;;24.53;24.13
70589;BME280;58152;49.202;18.744;2023-04-23T14:59:29;96687.16;;;24.50;23.51
70589;BME280;58152;49.202;18.744;2023-04-23T15:01:54;96687.28;;;24.65;23.22
70589;BME280;58152;49.202;18.744;2023-04-23T15:04:21;96687.94;;;24.67;23.53
70589;BME280;58152;49.202;18.744;2023-04-23T15:06:46;96687.06;;;24.75;23.42
70589;BME280;58152;49.202;18.744;2023-04-23T15:09:11;96679.72;;;24.69;23.72
70589;BME280;58152;49.202;18.744;2023-04-23T15:11:37;96678.97;;;24.44;24.33
70589;BME280;58152;49.202;18.744;2023-04-23T15:14:23;96692.69;;;24.49;23.18
70589;BME280;58152;49.202;18.744;2023-04-23T15:16:49;96680.03;;;24.10;24.22
70589;BME280;58152;49.202;18.744;2023-04-23T15:19:29;96692.75;;;24.00;24.66
70589;BME280;58152;49.202;18.744;2023-04-23T15:25:27;96680.91;;;23.70;24.50
70589;BME280;58152;49.202;18.744;2023-04-23T15:27:53;96666.13;;;23.57;25.28
70589;BME280;58152;49.202;18.744;2023-04-23T15:30:23;96678.88;;;23.55;24.92
70589;BME280;58152;49.202;18.744;2023-04-23T15:32:49;96682.88;;;23.59;24.96
70589;BME280;58152;49.202;18.744;2023-04-23T15:35:15;96684.41;;;23.70;24.65
70589;BME280;58152;49.202;18.744;2023-04-23T15:37:41;96661.44;;;24.00;24.87
70589;BME280;58152;49.202;18.744;2023-04-23T15:40:07;96669.25;;;24.26;24.51
70589;BME280;58152;49.202;18.744;2023-04-23T16:05:14;96651.25;;;23.71;24.85
70589;BME280;58152;49.202;18.744;2023-04-23T16:15:36;96638.72;;;23.80;22.48
70589;BME280;58152;49.202;18.744;2023-04-23T16:18:15;96639.72;;;23.79;24.65
70589;BME280;58152;49.202;18.744;2023-04-23T16:20:44;96631.38;;;23.74;24.46
70589;BME280;58152;49.202;18.744;2023-04-23T16:23:12;96640.88;;;23.68;24.46
70589;BME280;58152;49.202;18.744;2023-04-23T16:25:40;96631.50;;;23.48;24.24
70589;BME280;58152;49.202;18.744;2023-04-23T16:28:09;96635.69;;;23.34;24.52
70589;BME280;58152;49.202;18.744;2023-04-23T16:30:34;96633.16;;;23.16;24.08
70589;BME280;58152;49.202;18.744;2023-04-23T16:33:00;96637.13;;;22.96;24.56
70589;BME280;58152;49.202;18.744;2023-04-23T16:35:29;96640.56;;;22.80;24.82
70589;BME280;58152;49.202;18.744;2023-04-23T16:38:18;96635.88;;;22.74;25.01
70589;BME280;58152;49.202;18.744;2023-04-23T16:40:43;96636.88;;;22.73;25.08
70589;BME280;58152;49.202;18.744;2023-04-23T16:43:11;96644.53;;;22.68;25.29
70589;BME280;58152;49.202;18.744;2023-04-23T16:45:37;96652.50;;;22.51;25.20
70589;BME280;58152;49.202;18.744;2023-04-23T16:48:03;96640.28;;;22.41;25.42
70589;BME280;58152;49.202;18.744;2023-04-23T16:50:29;96640.06;;;22.34;25.64
70589;BME280;58152;49.202;18.744;2023-04-23T16:52:54;96636.72;;;22.32;25.61
70589;BME280;58152;49.202;18.744;2023-04-23T16:55:20;96638.69;;;22.30;25.75
70589;BME280;58152;49.202;18.744;2023-04-23T16:57:48;96643.91;;;22.31;25.74
70589;BME280;58152;49.202;18.744;2023-04-23T17:00:35;96633.00;;;22.25;24.94
70589;BME280;58152;49.202;18.744;2023-04-23T17:03:14;96639.53;;;22.30;25.87
70589;BME280;58152;49.202;18.744;2023-04-23T17:06:30;96643.69;;;22.25;25.33
70589;BME280;58152;49.202;18.744;2023-04-23T17:09:15;96646.09;;;22.10;26.15
70589;BME280;58152;49.202;18.744;2023-04-23T17:12:09;96640.16;;;21.98;25.39
70589;BME280;58152;49.202;18.744;2023-04-23T17:14:37;96636.41;;;21.83;26.52
70589;BME280;58152;49.202;18.744;2023-04-23T17:17:03;96633.38;;;21.78;26.50
70589;BME280;58152;49.202;18.744;2023-04-23T17:19:28;96624.34;;;21.79;26.78
70589;BME280;58152;49.202;18.744;2023-04-23T17:22:05;96626.34;;;21.77;26.66
70589;BME280;58152;49.202;18.744;2023-04-23T17:24:34;96628.13;;;21.68;26.82
70589;BME280;58152;49.202;18.744;2023-04-23T17:30:35;96630.22;;;21.39;27.15
70589;BME280;58152;49.202;18.744;2023-04-23T17:33:00;96622.88;;;21.23;27.28
70589;BME280;58152;49.202;18.744;2023-04-23T17:35:51;96625.72;;;21.21;27.24
70589;BME280;58152;49.202;18.744;2023-04-23T17:41:42;96621.50;;;21.01;27.60
70589;BME280;58152;49.202;18.744;2023-04-23T17:44:18;96629.75;;;20.90;27.65
70589;BME280;58152;49.202;18.744;2023-04-23T17:46:49;96633.31;;;20.80;28.04
70589;BME280;58152;49.202;18.744;2023-04-23T17:56:15;96635.50;;;20.67;28.44
70589;BME280;58152;49.202;18.744;2023-04-23T17:58:59;96644.47;;;20.66;27.99
70589;BME280;58152;49.202;18.744;2023-04-23T18:01:34;96646.75;;;20.61;28.30
70589;BME280;58152;49.202;18.744;2023-04-23T18:04:00;96644.00;;;20.53;28.42
70589;BME280;58152;49.202;18.744;2023-04-23T18:06:25;96640.19;;;20.55;28.18
70589;BME280;58152;49.202;18.744;2023-04-23T18:08:51;96648.56;;;20.61;28.84
70589;BME280;58152;49.202;18.744;2023-04-23T18:11:17;96651.03;;;20.72;28.81
70589;BME280;58152;49.202;18.744;2023-04-23T18:13:43;96649.06;;;20.74;28.67
70589;BME280;58152;49.202;18.744;2023-04-23T19:01:06;96670.56;;;19.59;30.49
70589;BME280;58152;49.202;18.744;2023-04-23T19:04:23;96678.44;;;19.61;30.36
70589;BME280;58152;49.202;18.744;2023-04-23T19:07:35;96683.19;;;19.57;30.27
70589;BME280;58152;49.202;18.744;2023-04-23T19:25:23;96679.97;;;19.24;31.34
70589;BME280;58152;49.202;18.744;2023-04-23T19:27:48;96675.34;;;19.17;30.63
70589;BME280;58152;49.202;18.744;2023-04-23T19:30:14;96676.44;;;19.24;31.03
70589;BME280;58152;49.202;18.744;2023-04-23T19:32:50;96678.56;;;19.30;30.64
70589;BME280;58152;49.202;18.744;2023-04-23T19:38:25;96678.16;;;19.15;31.39
70589;BME280;58152;49.202;18.744;2023-04-23T19:40:53;96673.78;;;19.04;31.61
70589;BME280;58152;49.202;18.744;2023-04-23T19:43:19;96672.66;;;18.97;31.67
70589;BME280;58152;49.202;18.744;2023-04-23T19:45:46;96687.06;;;18.95;31.92
70589;BME280;58152;49.202;18.744;2023-04-23T19:48:17;96670.81;;;18.78;31.47
70589;BME280;58152;49.202;18.744;2023-04-23T19:50:56;96677.38;;;18.74;32.25
70589;BME280;58152;49.202;18.744;2023-04-23T19:53:28;96681.41;;;18.69;31.97
70589;BME280;58152;49.202;18.744;2023-04-23T19:56:08;96672.44;;;18.60;32.21
70589;BME280;58152;49.202;18.744;2023-04-23T19:58:38;96666.38;;;18.48;32.80
70589;BME280;58152;49.202;18.744;2023-04-23T20:01:29;96670.66;;;18.40;32.92
70589;BME280;58152;49.202;18.744;2023-04-23T20:07:04;96687.97;;;18.34;32.30
70589;BME280;58152;49.202;18.744;2023-04-23T20:09:32;96671.44;;;18.21;32.77
70589;BME280;58152;49.202;18.744;2023-04-23T20:11:58;96668.63;;;18.22;32.63
70589;BME280;58152;49.202;18.744;2023-04-23T20:14:25;96675.53;;;18.35;32.82
70589;BME280;58152;49.202;18.744;2023-04-23T20:24:01;96667.19;;;18.09;32.48
70589;BME280;58152;49.202;18.744;2023-04-23T20:26:52;96679.88;;;18.05;33.06
70589;BME280;58152;49.202;18.744;2023-04-23T20:29:48;96661.78;;;17.89;32.49
70589;BME280;58152;49.202;18.744;2023-04-23T20:36:07;96656.72;;;17.65;34.08
70589;BME280;58152;49.202;18.744;2023-04-23T20:39:19;96669.53;;;17.60;34.15
70589;BME280;58152;49.202;18.744;2023-04-23T20:42:00;96671.84;;;17.53;33.35
70589;BME280;58152;49.202;18.744;2023-04-23T20:44:26;96665.00;;;17.51;33.13
70589;BME280;58152;49.202;18.744;2023-04-23T21:00:04;96664.00;;;17.31;33.98
70589;BME280;58152;49.202;18.744;2023-04-23T21:02:42;96658.16;;;17.16;34.12
70589;BME280;58152;49.202;18.744;2023-04-23T21:05:18;96655.53;;;17.16;33.68
70589;BME280;58152;49.202;18.744;2023-04-23T21:07:48;96659.16;;;17.15;34.61
70589;BME280;58152;49.202;18.744;2023-04-23T21:10:14;96648.78;;;17.12;33.84
70589;BME280;58152;49.202;18.744;2023-04-23T21:12:40;96644.13;;;17.05;34.28
70589;BME280;58152;49.202;18.744;2023-04-23T21:15:08;96644.97;;;17.05;33.80
70589;BME280;58152;49.202;18.744;2023-04-23T21:17:34;96647.72;;;17.03;33.99
70589;BME280;58152;49.202;18.744;2023-04-23T21:20:00;96644.75;;;16.97;34.45
70589;BME280;58152;49.202;18.744;2023-04-23T21:22:27;96651.97;;;16.95;34.76
70589;BME280;58152;49.202;18.744;2023-04-23T21:24:57;96648.16;;;16.88;34.42
70589;BME280;58152;49.202;18.744;2023-04-23T21:27:24;96647.06;;;16.90;34.29
70589;BME280;58152;49.202;18.744;2023-04-23T21:30:06;96634.94;;;16.76;34.99
70589;BME280;58152;49.202;18.744;2023-04-23T21:32:37;96626.28;;;16.74;34.93
70589;BME280;58152;49.202;18.744;2023-04-23T21:35:13;96640.50;;;16.73;34.68
70589;BME280;58152;49.202;18.744;2023-04-23T21:37:39;96622.31;;;16.69;34.65
70589;BME280;58152;49.202;18.744;2023-04-23T21:40:12;96622.69;;;16.64;34.82
70589;BME280;58152;49.202;18.744;2023-04-23T21:42:41;96608.34;;;16.67;34.53
70589;BME280;58152;49.202;18.744;2023-04-23T21:45:07;96611.13;;;16.65;34.48
70589;BME280;58152;49.202;18.744;2023-04-23T21:47:33;96610.66;;;16.60;34.90
70589;BME280;58152;49.202;18.744;2023-04-23T21:49:58;96604.06;;;16.55;35.53
70589;BME280;58152;49.202;18.744;2023-04-23T21:52:25;96612.00;;;16.55;35.69
70589;BME280;58152;49.202;18.744;2023-04-23T21:54:50;96609.00;;;16.48;35.61
70589;BME280;58152;49.202;18.744;2023-04-23T21:57:16;96610.31;;;16.42;35.58
70589;BME280;58152;49.202;18.744;2023-04-23T21:59:42;96605.31;;;16.28;35.54
70589;BME280;58152;49.202;18.744;2023-04-23T22:02:07;96600.25;;;16.25;35.95
70589;BME280;58152;49.202;18.744;2023-04-23T22:04:33;96609.28;;;16.22;36.03
70589;BME280;58152;49.202;18.744;2023-04-23T22:06:59;96598.22;;;16.17;36.17
70589;BME280;58152;49.202;18.744;2023-04-23T22:09:27;96598.47;;;16.14;36.23
70589;BME280;58152;49.202;18.744;2023-04-23T22:11:53;96609.75;;;16.16;36.65
70589;BME280;58152;49.202;18.744;2023-04-23T22:14:18;96597.03;;;16.10;36.50
70589;BME280;58152;49.202;18.744;2023-04-23T22:16:43;96595.97;;;16.13;36.65
70589;BME280;58152;49.202;18.744;2023-04-23T22:19:10;96596.78;;;16.13;36.64
70589;BME280;58152;49.202;18.744;2023-04-23T22:21:36;96589.94;;;16.11;37.24
70589;BME280;58152;49.202;18.744;2023-04-23T22:24:01;96597.25;;;16.07;37.26
70589;BME280;58152;49.202;18.744;2023-04-23T22:26:28;96601.63;;;16.08;37.18
70589;BME280;58152;49.202;18.744;2023-04-23T22:28:53;96592.09;;;16.06;37.05
70589;BME280;58152;49.202;18.744;2023-04-23T22:31:19;96591.50;;;16.02;37.04
70589;BME280;58152;49.202;18.744;2023-04-23T22:33:44;96596.41;;;16.07;37.18
70589;BME280;58152;49.202;18.744;2023-04-23T22:36:10;96599.69;;;15.99;37.40
70589;BME280;58152;49.202;18.744;2023-04-23T22:38:38;96596.53;;;15.94;37.42
70589;BME280;58152;49.202;18.744;2023-04-23T22:41:04;96585.75;;;15.86;37.70
70589;BME280;58152;49.202;18.744;2023-04-23T22:43:31;96585.75;;;15.86;37.87
70589;BME280;58152;49.202;18.744;2023-04-23T22:45:57;96585.38;;;15.90;38.07
70589;BME280;58152;49.202;18.744;2023-04-23T22:48:22;96582.13;;;15.87;37.98
70589;BME280;58152;49.202;18.744;2023-04-23T22:50:48;96579.84;;;15.82;38.03
70589;BME280;58152;49.202;18.744;2023-04-23T22:53:15;96575.16;;;15.74;38.07
70589;BME280;58152;49.202;18.744;2023-04-23T22:55:45;96571.66;;;15.74;38.30
70589;BME280;58152;49.202;18.744;2023-04-23T22:58:11;96570.22;;;15.70;38.26
70589;BME280;58152;49.202;18.744;2023-04-23T23:00:36;96573.13;;;15.67;38.77
70589;BME280;58152;49.202;18.744;2023-04-23T23:03:02;96562.97;;;15.61;38.69
70589;BME280;58152;49.202;18.744;2023-04-23T23:05:28;96560.13;;;15.64;38.59
70589;BME280;58152;49.202;18.744;2023-04-23T23:07:53;96560.34;;;15.61;38.89
70589;BME280;58152;49.202;18.744;2023-04-23T23:10:20;96545.66;;;15.57;38.88
70589;BME280;58152;49.202;18.744;2023-04-23T23:12:46;96550.84;;;15.58;38.96
70589;BME280;58152;49.202;18.744;2023-04-23T23:15:11;96546.75;;;15.54;39.18
70589;BME280;58152;49.202;18.744;2023-04-23T23:17:36;96547.59;;;15.55;39.01
70589;BME280;58152;49.202;18.744;2023-04-23T23:20:02;96549.28;;;15.56;39.17
70589;BME280;58152;49.202;18.744;2023-04-23T23:22:31;96541.13;;;15.59;39.30
70589;BME280;58152;49.202;18.744;2023-04-23T23:24:56;96539.22;;;15.72;39.56
70589;BME280;58152;49.202;18.744;2023-04-23T23:27:22;96540.44;;;15.68;39.19
70589;BME280;58152;49.202;18.744;2023-04-23T23:29:47;96548.78;;;15.62;39.17
70589;BME280;58152;49.202;18.744;2023-04-23T23:32:12;96540.38;;;15.57;38.89
70589;BME280;58152;49.202;18.744;2023-04-23T23:34:38;96535.22;;;15.55;39.22
70589;BME280;58152;49.202;18.744;2023-04-23T23:37:03;96544.69;;;15.58;39.58
70589;BME280;58152;49.202;18.744;2023-04-23T23:39:29;96545.66;;;15.57;39.17